Time;durP1;ratioP1;P1;durP2;ratioP2;P2;SDS_P1;SDS_P2;PMS_P1;PMS_P2;Temp;Humidity;BMP_temperature;BMP_pressure;BME280_temperature;BME280_humidity;BME280_pressure;Samples;Min_cycle;Max_cycle;Signal;HPM_P1;HPM_P2
2022/02/02 00:01:47;;;;;;;2.33;2.10;;;;;;;;;;6065334;23;20564;-83
2022/02/02 00:04:58;;;;;;;2.70;1.90;;;;;;;;;;6083201;23;20858;-83
2022/02/02 00:08:21;;;;;;;3.30;2.17;;;;;;;;;;6083338;23;20509;-83
2022/02/02 00:24:42;;;;;;;3.70;1.60;;;;;;;;;;6071613;23;20563;-84
2022/02/02 00:27:52;;;;;;;2.40;2.00;;;;;;;;;;6065303;23;20509;-84
2022/02/02 00:31:00;;;;;;;3.63;1.90;;;;;;;;;;6064718;23;20854;-84
2022/02/02 00:34:09;;;;;;;5.93;2.73;;;;;;;;;;6056048;23;20656;-84
2022/02/02 00:37:14;;;;;;;3.10;2.60;;;;;;;;;;6066468;23;20504;-84
2022/02/02 00:40:19;;;;;;;3.13;2.30;;;;;;;;;;6065516;23;20179;-84
2022/02/02 00:43:23;;;;;;;3.57;2.80;;;;;;;;;;6072626;23;21155;-84
2022/02/02 00:46:28;;;;;;;3.63;2.80;;;;;;;;;;6055483;23;20556;-84
2022/02/02 00:49:32;;;;;;;3.90;2.80;;;;;;;;;;6081252;23;20520;-84
2022/02/02 00:52:36;;;;;;;3.60;2.40;;;;;;;;;;6079367;23;20897;-84
2022/02/02 00:55:41;;;;;;;3.83;2.40;;;;;;;;;;6082499;23;20613;-83
2022/02/02 00:58:45;;;;;;;4.37;2.80;;;;;;;;;;6082016;23;20497;-84
2022/02/02 01:01:50;;;;;;;2.67;2.47;;;;;;;;;;6049744;23;20179;-84
2022/02/02 01:04:55;;;;;;;3.77;2.70;;;;;;;;;;6081690;23;20509;-84
2022/02/02 01:11:46;;;;;;;7.77;2.37;;;;;;;;;;6065822;23;20513;-84
2022/02/02 01:15:55;;;;;;;4.10;2.10;;;;;;;;;;6065248;23;20508;-84
2022/02/02 01:28:23;;;;;;;5.37;2.30;;;;;;;;;;6065600;23;20505;-84
2022/02/02 01:31:27;;;;;;;3.43;2.27;;;;;;;;;;6100234;23;20513;-84
2022/02/02 01:34:31;;;;;;;4.50;2.33;;;;;;;;;;6064588;23;20160;-83
2022/02/02 01:37:35;;;;;;;4.17;2.37;;;;;;;;;;6082078;23;20155;-84
2022/02/02 01:40:57;;;;;;;5.73;2.50;;;;;;;;;;6082160;23;20491;-84
2022/02/02 01:44:13;;;;;;;3.53;2.17;;;;;;;;;;6075327;23;20200;-84
2022/02/02 01:47:18;;;;;;;4.07;2.23;;;;;;;;;;6055986;23;20637;-84
2022/02/02 01:50:23;;;;;;;4.07;2.10;;;;;;;;;;6082417;23;20516;-83
2022/02/02 01:56:32;;;;;;;2.60;1.90;;;;;;;;;;6066097;23;20151;-84
2022/02/02 01:59:39;;;;;;;2.10;1.73;;;;;;;;;;6066599;23;20160;-84
2022/02/02 02:02:43;;;;;;;4.30;2.20;;;;;;;;;;6080258;23;20187;-84
2022/02/02 02:05:47;;;;;;;5.43;2.20;;;;;;;;;;6058366;23;20567;-84
2022/02/02 02:08:52;;;;;;;4.83;2.13;;;;;;;;;;6083538;23;20511;-84
2022/02/02 02:12:02;;;;;;;5.03;2.50;;;;;;;;;;6082676;23;20508;-84
2022/02/02 02:15:08;;;;;;;2.87;2.10;;;;;;;;;;6066760;23;20494;-84
2022/02/02 02:18:13;;;;;;;2.80;2.10;;;;;;;;;;6083713;23;20834;-84
2022/02/02 02:21:18;;;;;;;2.27;1.87;;;;;;;;;;6067754;23;20567;-84
2022/02/02 02:24:22;;;;;;;3.47;1.93;;;;;;;;;;6051593;23;20524;-84
2022/02/02 02:27:26;;;;;;;2.43;1.80;;;;;;;;;;6059162;23;20885;-84
2022/02/02 02:30:47;;;;;;;2.70;1.90;;;;;;;;;;6069372;23;20520;-83
2022/02/02 02:57:16;;;;;;;2.67;2.10;;;;;;;;;;6091120;23;20504;-86
2022/02/02 03:14:42;;;;;;;5.70;2.10;;;;;;;;;;6084693;23;20575;-87
2022/02/02 03:55:04;;;;;;;8.07;2.50;;;;;;;;;;6094682;23;20578;-87
2022/02/02 04:07:50;;;;;;;5.37;2.37;;;;;;;;;;6103098;23;20158;-87
2022/02/02 04:10:55;;;;;;;13.80;2.87;;;;;;;;;;6119157;23;20155;-86
2022/02/02 04:17:39;;;;;;;10.63;2.77;;;;;;;;;;6126442;23;20174;-87
2022/02/02 04:51:30;;;;;;;9.53;2.20;;;;;;;;;;6114081;23;20198;-86
2022/02/02 04:54:37;;;;;;;11.40;2.67;;;;;;;;;;6109942;23;20186;-87
2022/02/02 05:04:43;;;;;;;13.63;2.37;;;;;;;;;;6110285;23;20678;-87
2022/02/02 05:08:00;;;;;;;15.73;2.83;;;;;;;;;;6118976;23;20163;-86
2022/02/02 05:11:43;;;;;;;12.37;2.80;;;;;;;;;;6102807;23;20154;-86
2022/02/02 05:18:45;;;;;;;10.23;2.33;;;;;;;;;;6118945;23;20600;-86
2022/02/02 05:51:43;;;;;;;16.87;2.73;;;;;;;;;;6139091;23;20162;-86
2022/02/02 05:54:47;;;;;;;12.00;3.33;;;;;;;;;;6104990;23;20159;-86
2022/02/02 05:57:53;;;;;;;8.47;2.83;;;;;;;;;;6112040;23;20174;-86
2022/02/02 06:01:00;;;;;;;18.93;2.80;;;;;;;;;;6088681;23;20159;-86
2022/02/02 06:04:08;;;;;;;11.67;2.67;;;;;;;;;;6097268;23;20186;-86
2022/02/02 06:07:16;;;;;;;12.80;2.50;;;;;;;;;;6094468;23;20174;-85
2022/02/02 06:10:22;;;;;;;13.93;4.27;;;;;;;;;;6123260;23;20477;-86
2022/02/02 06:13:39;;;;;;;14.13;3.57;;;;;;;;;;6088025;23;20182;-86
2022/02/02 06:16:43;;;;;;;10.70;2.20;;;;;;;;;;6122931;23;20166;-86
2022/02/02 06:19:48;;;;;;;7.10;1.60;;;;;;;;;;6124568;23;20469;-87
2022/02/02 06:23:00;;;;;;;7.60;1.43;;;;;;;;;;6105833;23;20201;-84
2022/02/02 06:26:12;;;;;;;13.33;1.90;;;;;;;;;;6108268;23;20159;-86
2022/02/02 06:29:16;;;;;;;6.33;1.90;;;;;;;;;;6093011;23;20155;-86
2022/02/02 06:32:26;;;;;;;10.87;1.87;;;;;;;;;;6107203;23;20599;-86
2022/02/02 06:35:31;;;;;;;8.83;2.13;;;;;;;;;;6088339;23;20159;-86
2022/02/02 06:38:38;;;;;;;10.93;2.23;;;;;;;;;;6088502;23;20166;-86
2022/02/02 06:41:42;;;;;;;9.77;2.47;;;;;;;;;;6111745;23;20627;-86
2022/02/02 06:44:47;;;;;;;8.77;1.63;;;;;;;;;;6105645;23;20154;-86
2022/02/02 06:47:51;;;;;;;9.00;2.27;;;;;;;;;;6089131;23;20159;-86
2022/02/02 06:51:20;;;;;;;6.37;1.90;;;;;;;;;;6105500;23;20154;-86
2022/02/02 06:54:55;;;;;;;8.63;1.83;;;;;;;;;;6113411;23;20639;-86
2022/02/02 06:58:05;;;;;;;8.40;1.80;;;;;;;;;;6107986;23;20162;-86
2022/02/02 07:01:31;;;;;;;9.57;2.87;;;;;;;;;;6097878;23;20171;-86
2022/02/02 07:12:19;;;;;;;8.33;2.20;;;;;;;;;;6124112;23;20600;-85
2022/02/02 07:15:48;;;;;;;16.70;3.10;;;;;;;;;;6107974;23;20154;-87
2022/02/02 07:18:38;;;;;;;14.03;3.00;;;;;;;;;;6107157;23;20159;-86
2022/02/02 07:32:06;;;;;;;12.87;3.13;;;;;;;;;;6105806;23;20174;-86
2022/02/02 07:35:31;;;;;;;16.63;3.60;;;;;;;;;;6088545;23;20158;-89
2022/02/02 07:38:53;;;;;;;15.70;3.00;;;;;;;;;;6104753;23;20162;-85
2022/02/02 07:42:02;;;;;;;15.20;2.77;;;;;;;;;;6104323;23;20158;-86
2022/02/02 07:45:10;;;;;;;9.53;2.17;;;;;;;;;;6124531;23;20159;-86
2022/02/02 07:48:15;;;;;;;10.10;2.77;;;;;;;;;;6106862;23;20155;-86
2022/02/02 07:51:19;;;;;;;12.40;2.70;;;;;;;;;;6088833;23;20154;-85
2022/02/02 07:54:29;;;;;;;14.67;4.80;;;;;;;;;;6112529;23;20186;-86
2022/02/02 07:57:34;;;;;;;23.37;8.07;;;;;;;;;;6122074;23;20155;-86
2022/02/02 08:00:38;;;;;;;11.87;2.83;;;;;;;;;;6103443;23;20159;-86
2022/02/02 08:03:51;;;;;;;15.80;3.63;;;;;;;;;;6115238;23;20198;-86
2022/02/02 08:06:57;;;;;;;11.57;3.30;;;;;;;;;;6120385;23;20188;-86
2022/02/02 08:13:18;;;;;;;11.00;2.90;;;;;;;;;;6116155;23;20190;-86
2022/02/02 08:16:23;;;;;;;15.30;3.70;;;;;;;;;;6094661;23;20174;-86
2022/02/02 08:19:27;;;;;;;9.53;2.70;;;;;;;;;;6119997;23;20465;-86
2022/02/02 08:22:31;;;;;;;12.80;4.20;;;;;;;;;;6102056;23;20626;-86
2022/02/02 08:25:37;;;;;;;11.27;2.60;;;;;;;;;;6120627;23;20162;-86
2022/02/02 08:28:46;;;;;;;14.23;4.00;;;;;;;;;;6120866;23;20154;-86
2022/02/02 08:31:50;;;;;;;8.27;2.50;;;;;;;;;;6119943;23;20162;-87
2022/02/02 08:34:58;;;;;;;10.40;2.53;;;;;;;;;;6120922;23;20599;-86
2022/02/02 08:44:23;;;;;;;13.80;3.00;;;;;;;;;;6095096;23;20217;-86
2022/02/02 08:47:27;;;;;;;13.00;3.37;;;;;;;;;;6102371;23;20162;-87
2022/02/02 08:50:57;;;;;;;12.00;2.80;;;;;;;;;;6102606;23;20154;-87
2022/02/02 08:57:39;;;;;;;14.53;4.50;;;;;;;;;;6102562;23;20603;-83
2022/02/02 09:00:43;;;;;;;13.87;3.20;;;;;;;;;;6120463;23;20158;-84
2022/02/02 09:07:10;;;;;;;11.00;2.90;;;;;;;;;;6104766;23;20159;-83
2022/02/02 09:21:48;;;;;;;16.77;3.07;;;;;;;;;;6120686;23;20184;-85
2022/02/02 09:24:18;;;;;;;11.13;3.70;;;;;;;;;;6095373;23;20206;-84
2022/02/02 09:34:12;;;;;;;16.50;4.90;;;;;;;;;;6099016;23;20663;-83
2022/02/02 09:37:17;;;;;;;23.40;5.50;;;;;;;;;;6078682;23;20170;-87
2022/02/02 09:43:28;;;;;;;18.63;5.47;;;;;;;;;;6094475;23;20198;-83
2022/02/02 09:46:56;;;;;;;11.17;3.57;;;;;;;;;;6105534;23;20154;-83
2022/02/02 09:53:43;;;;;;;10.67;4.60;;;;;;;;;;6119803;23;20190;-83
2022/02/02 10:16:51;;;;;;;14.67;3.30;;;;;;;;;;6112363;23;20631;-84
2022/02/02 10:24:43;;;;;;;5.27;2.20;;;;;;;;;;6100250;23;20193;-83
2022/02/02 10:28:32;;;;;;;7.60;1.63;;;;;;;;;;6122021;23;20163;-83
2022/02/02 10:31:46;;;;;;;8.33;2.47;;;;;;;;;;6104849;23;20159;-84
2022/02/02 10:34:50;;;;;;;5.00;2.90;;;;;;;;;;6094866;23;20190;-83
2022/02/02 10:38:04;;;;;;;12.70;3.37;;;;;;;;;;6083108;23;20166;-87
2022/02/02 10:44:22;;;;;;;10.33;3.50;;;;;;;;;;6115659;23;20198;-85
2022/02/02 10:47:38;;;;;;;6.93;2.40;;;;;;;;;;6104739;23;20158;-87
2022/02/02 10:50:59;;;;;;;7.17;2.60;;;;;;;;;;6138634;23;20162;-89
2022/02/02 10:58:01;;;;;;;7.90;2.80;;;;;;;;;;6139506;23;20155;-87
2022/02/02 11:08:16;;;;;;;12.00;3.13;;;;;;;;;;6102841;23;20163;-87
2022/02/02 11:11:20;;;;;;;14.57;4.00;;;;;;;;;;6076955;23;20174;-87
2022/02/02 11:14:32;;;;;;;12.83;3.40;;;;;;;;;;6093174;23;20186;-88
2022/02/02 11:18:08;;;;;;;15.83;4.33;;;;;;;;;;6087082;23;20595;-87
2022/02/02 11:21:15;;;;;;;11.10;3.07;;;;;;;;;;6091372;23;20155;-83
2022/02/02 11:24:20;;;;;;;11.83;3.27;;;;;;;;;;6096254;23;20198;-82
2022/02/02 11:27:43;;;;;;;8.27;2.47;;;;;;;;;;6106475;23;20604;-83
2022/02/02 11:30:47;;;;;;;8.57;2.17;;;;;;;;;;6106787;23;20155;-84
2022/02/02 11:33:57;;;;;;;9.30;2.60;;;;;;;;;;6096932;23;20186;-83
2022/02/02 11:37:04;;;;;;;10.43;2.40;;;;;;;;;;6098808;23;20174;-84
2022/02/02 11:40:09;;;;;;;7.67;2.80;;;;;;;;;;6109162;23;20465;-84
2022/02/02 11:47:19;;;;;;;14.67;2.47;;;;;;;;;;6125890;23;20159;-83
2022/02/02 11:50:47;;;;;;;7.13;2.20;;;;;;;;;;6111415;23;20508;-82
2022/02/02 11:53:51;;;;;;;7.07;1.97;;;;;;;;;;6089766;23;20182;-82
2022/02/02 11:57:03;;;;;;;5.60;1.50;;;;;;;;;;6093413;23;20158;-82
2022/02/02 12:03:43;;;;;;;2.73;1.13;;;;;;;;;;6122112;23;20194;-82
2022/02/02 12:10:04;;;;;;;4.83;1.30;;;;;;;;;;6124363;23;20156;-83
2022/02/02 12:21:15;;;;;;;1.53;0.80;;;;;;;;;;6121730;23;20158;-82
2022/02/02 12:54:20;;;;;;;5.83;2.07;;;;;;;;;;6102487;23;20190;-83
2022/02/02 12:57:19;;;;;;;5.13;1.60;;;;;;;;;;6114931;23;20155;-83
2022/02/02 13:00:35;;;;;;;7.43;2.27;;;;;;;;;;6095852;23;20155;-83
2022/02/02 13:03:42;;;;;;;8.47;2.63;;;;;;;;;;6104604;23;20194;-83
2022/02/02 13:06:46;;;;;;;5.07;1.90;;;;;;;;;;6078947;23;20174;-83
2022/02/02 13:09:52;;;;;;;10.67;2.30;;;;;;;;;;6121862;23;20158;-84
2022/02/02 13:13:08;;;;;;;8.90;2.50;;;;;;;;;;6086547;23;20162;-83
2022/02/02 13:16:22;;;;;;;10.77;2.73;;;;;;;;;;6138449;23;20151;-83
2022/02/02 13:19:31;;;;;;;9.10;4.00;;;;;;;;;;6087845;23;20184;-83
2022/02/02 13:22:37;;;;;;;10.03;2.17;;;;;;;;;;6089684;23;20158;-83
2022/02/02 13:25:44;;;;;;;7.60;1.80;;;;;;;;;;6091025;23;20182;-83
2022/02/02 13:33:07;;;;;;;9.27;2.80;;;;;;;;;;6105139;23;20469;-83
2022/02/02 13:35:55;;;;;;;6.47;1.97;;;;;;;;;;6124377;23;20151;-83
2022/02/02 13:55:23;;;;;;;6.83;1.97;;;;;;;;;;6099112;23;20497;-83
2022/02/02 14:25:37;;;;;;;7.07;2.20;;;;;;;;;;6120104;23;20694;-84
2022/02/02 14:32:02;;;;;;;32.83;12.37;;;;;;;;;;6109080;23;20155;-84
2022/02/02 14:35:06;;;;;;;13.07;5.73;;;;;;;;;;6108746;23;20159;-84
2022/02/02 14:38:13;;;;;;;8.23;3.80;;;;;;;;;;6108513;23;20154;-83
2022/02/02 14:41:26;;;;;;;8.17;2.30;;;;;;;;;;6108594;23;20162;-84
2022/02/02 14:44:37;;;;;;;2.63;1.40;;;;;;;;;;6086484;23;20210;-87
2022/02/02 14:47:46;;;;;;;4.37;1.30;;;;;;;;;;6108537;23;20166;-87
2022/02/02 14:54:24;;;;;;;5.93;1.40;;;;;;;;;;6100242;23;20194;-87
2022/02/02 15:28:17;;;;;;;6.03;2.10;;;;;;;;;;6095717;23;20174;-90
2022/02/02 15:31:22;;;;;;;6.53;3.13;;;;;;;;;;6104167;23;20158;-89
2022/02/02 15:34:36;;;;;;;9.47;4.17;;;;;;;;;;6080775;23;20651;-88
2022/02/02 15:37:58;;;;;;;17.43;10.87;;;;;;;;;;6136206;23;20158;-89
2022/02/02 15:41:07;;;;;;;8.70;5.50;;;;;;;;;;6088667;23;20158;-88
2022/02/02 16:04:22;;;;;;;11.40;4.57;;;;;;;;;;6100086;23;20194;-88
2022/02/02 16:07:27;;;;;;;14.63;7.57;;;;;;;;;;6078974;23;20170;-88
2022/02/02 16:10:50;;;;;;;7.93;4.40;;;;;;;;;;6088284;23;20155;-88
2022/02/02 16:14:07;;;;;;;6.37;2.50;;;;;;;;;;6100807;23;20194;-88
2022/02/02 16:17:21;;;;;;;8.30;3.10;;;;;;;;;;6105049;23;20468;-89
2022/02/02 16:37:00;;;;;;;4.47;1.70;;;;;;;;;;6096096;23;20499;-88
2022/02/02 16:40:09;;;;;;;7.73;3.63;;;;;;;;;;6088343;23;20159;-88
2022/02/02 16:43:13;;;;;;;5.10;2.90;;;;;;;;;;6078726;23;20174;-89
2022/02/02 16:46:18;;;;;;;7.70;3.47;;;;;;;;;;6088859;23;20192;-88
2022/02/02 16:49:23;;;;;;;4.87;2.10;;;;;;;;;;6105960;23;20155;-89
2022/02/02 16:52:30;;;;;;;5.07;2.83;;;;;;;;;;6105299;23;20491;-89
2022/02/02 17:36:02;;;;;;;9.63;4.43;;;;;;;;;;6104407;23;20155;-88
2022/02/02 17:39:09;;;;;;;21.10;9.00;;;;;;;;;;6104339;23;20592;-89
2022/02/02 18:03:18;;;;;;;7.87;2.70;;;;;;;;;;6104354;23;20158;-90
2022/02/02 18:18:51;;;;;;;8.97;3.50;;;;;;;;;;6104312;23;20468;-88
2022/02/02 18:21:55;;;;;;;13.70;3.60;;;;;;;;;;6088148;23;20503;-88
2022/02/02 18:25:08;;;;;;;6.50;2.73;;;;;;;;;;6094114;23;20573;-88
2022/02/02 18:31:43;;;;;;;7.83;2.50;;;;;;;;;;6110760;23;20558;-88
2022/02/02 18:34:56;;;;;;;9.23;2.63;;;;;;;;;;6080935;23;20190;-88
2022/02/02 18:48:38;;;;;;;12.97;2.50;;;;;;;;;;6103901;23;20542;-89
2022/02/02 18:58:29;;;;;;;11.97;2.57;;;;;;;;;;6103917;23;20523;-89
2022/02/02 19:01:44;;;;;;;7.70;2.20;;;;;;;;;;6136956;23;20159;-88
2022/02/02 19:26:05;;;;;;;51.07;22.60;;;;;;;;;;6097461;23;20198;-87
2022/02/02 20:08:24;;;;;;;27.93;12.47;;;;;;;;;;6103005;23;20507;-88
2022/02/02 20:11:39;;;;;;;33.77;14.57;;;;;;;;;;6119667;23;20511;-89
2022/02/02 20:14:43;;;;;;;18.30;5.77;;;;;;;;;;6096114;23;20573;-88
2022/02/02 20:17:49;;;;;;;10.60;3.13;;;;;;;;;;6086071;23;20514;-88
2022/02/02 20:20:55;;;;;;;16.53;3.60;;;;;;;;;;6087771;23;20514;-89
2022/02/02 20:24:02;;;;;;;15.23;3.47;;;;;;;;;;6117415;23;20582;-89
2022/02/02 20:27:08;;;;;;;8.50;3.00;;;;;;;;;;6088365;23;20857;-88
2022/02/02 20:30:12;;;;;;;11.77;3.20;;;;;;;;;;6087834;23;20522;-87
2022/02/02 20:33:16;;;;;;;9.93;3.00;;;;;;;;;;6086718;23;20514;-89
2022/02/02 20:36:20;;;;;;;10.87;2.90;;;;;;;;;;6104979;23;20498;-88
2022/02/02 20:39:39;;;;;;;12.60;3.00;;;;;;;;;;6104593;23;20510;-88
2022/02/02 20:42:55;;;;;;;11.13;3.20;;;;;;;;;;6088356;23;20522;-89
2022/02/02 20:46:23;;;;;;;8.80;2.70;;;;;;;;;;6121593;23;20574;-88
2022/02/02 21:16:01;;;;;;;17.57;3.53;;;;;;;;;;6104520;23;20507;-89
2022/02/02 21:19:09;;;;;;;14.17;4.23;;;;;;;;;;6088119;23;20503;-88
2022/02/02 21:22:13;;;;;;;13.93;3.90;;;;;;;;;;6121051;23;20502;-88
2022/02/02 21:28:37;;;;;;;16.60;3.67;;;;;;;;;;6121172;23;20495;-89
2022/02/02 21:31:42;;;;;;;12.33;3.53;;;;;;;;;;6121646;23;20510;-88
2022/02/02 21:34:48;;;;;;;12.20;3.60;;;;;;;;;;6081623;23;20881;-88
2022/02/02 21:38:01;;;;;;;10.73;3.13;;;;;;;;;;6087688;23;20502;-88
2022/02/02 21:41:06;;;;;;;15.80;3.93;;;;;;;;;;6104361;23;20503;-89
2022/02/02 21:44:09;;;;;;;10.37;4.27;;;;;;;;;;6082925;23;21161;-88
2022/02/02 21:47:14;;;;;;;9.67;3.93;;;;;;;;;;6087377;23;20554;-88
2022/02/02 21:50:19;;;;;;;15.10;4.80;;;;;;;;;;6103896;23;20510;-87
2022/02/02 21:53:24;;;;;;;19.13;5.00;;;;;;;;;;6119644;23;20585;-88
2022/02/02 21:56:28;;;;;;;16.80;4.73;;;;;;;;;;6121616;23;20502;-88
2022/02/02 21:59:33;;;;;;;14.33;5.10;;;;;;;;;;6087989;23;20507;-88
2022/02/02 22:02:40;;;;;;;13.00;4.17;;;;;;;;;;6104421;23;20506;-88
2022/02/02 22:05:44;;;;;;;16.50;4.80;;;;;;;;;;6088347;23;20502;-87
2022/02/02 22:08:48;;;;;;;14.07;5.03;;;;;;;;;;6105157;23;20495;-88
2022/02/02 22:11:53;;;;;;;17.20;5.93;;;;;;;;;;6105636;23;20506;-88
2022/02/02 22:14:57;;;;;;;19.53;6.97;;;;;;;;;;6132761;23;20570;-89
2022/02/02 22:18:00;;;;;;;23.27;7.03;;;;;;;;;;6107577;23;20499;-88
2022/02/02 22:21:05;;;;;;;30.37;8.33;;;;;;;;;;6123378;23;20503;-88
2022/02/02 22:24:09;;;;;;;22.37;7.20;;;;;;;;;;6085055;23;21149;-88
2022/02/02 22:27:13;;;;;;;24.73;8.23;;;;;;;;;;6080244;23;20597;-88
2022/02/02 22:30:17;;;;;;;24.63;8.27;;;;;;;;;;6113803;23;20562;-89
2022/02/02 22:33:22;;;;;;;18.70;6.83;;;;;;;;;;6080347;23;20581;-89
2022/02/02 22:36:26;;;;;;;21.13;7.43;;;;;;;;;;6080027;23;20558;-88
2022/02/02 22:39:30;;;;;;;22.13;7.40;;;;;;;;;;6079284;23;20558;-89
2022/02/02 22:42:35;;;;;;;16.57;6.43;;;;;;;;;;6088703;23;20507;-87
2022/02/02 22:45:43;;;;;;;24.57;7.33;;;;;;;;;;6088825;23;21023;-88
2022/02/02 22:48:47;;;;;;;13.20;6.63;;;;;;;;;;6122029;23;20498;-88
2022/02/02 22:51:51;;;;;;;21.20;7.23;;;;;;;;;;6088670;23;20507;-89
2022/02/02 22:54:55;;;;;;;17.27;6.47;;;;;;;;;;6097653;23;20577;-87
2022/02/02 22:57:59;;;;;;;20.63;7.40;;;;;;;;;;6105069;23;20814;-87
2022/02/02 23:01:04;;;;;;;20.40;7.00;;;;;;;;;;6105385;23;20506;-88
2022/02/02 23:04:08;;;;;;;19.73;6.90;;;;;;;;;;6084117;23;20577;-88
2022/02/02 23:07:13;;;;;;;21.83;7.10;;;;;;;;;;6121934;23;20554;-89
2022/02/02 23:10:20;;;;;;;19.47;6.57;;;;;;;;;;6088644;23;20510;-88
2022/02/02 23:13:24;;;;;;;20.73;6.73;;;;;;;;;;6087845;23;20573;-88
2022/02/02 23:16:35;;;;;;;22.67;8.73;;;;;;;;;;6088266;23;20506;-88
2022/02/02 23:19:43;;;;;;;21.10;7.37;;;;;;;;;;6088169;23;20503;-88
2022/02/02 23:22:49;;;;;;;19.30;6.33;;;;;;;;;;6120862;23;20507;-88
2022/02/02 23:25:55;;;;;;;16.17;7.07;;;;;;;;;;6087785;23;20502;-88
2022/02/02 23:29:01;;;;;;;17.37;7.17;;;;;;;;;;6136751;23;20498;-88
2022/02/02 23:32:05;;;;;;;19.03;7.40;;;;;;;;;;6119772;23;20510;-89
2022/02/02 23:35:10;;;;;;;18.77;6.63;;;;;;;;;;6077810;23;20574;-87
2022/02/02 23:38:15;;;;;;;15.47;6.77;;;;;;;;;;6086747;23;20503;-88
2022/02/02 23:42:01;;;;;;;19.67;7.23;;;;;;;;;;6086861;23;20502;-88
2022/02/02 23:44:53;;;;;;;17.37;7.90;;;;;;;;;;6094138;23;20613;-88
2022/02/02 23:47:59;;;;;;;16.93;7.10;;;;;;;;;;6076750;23;20609;-89
2022/02/02 23:51:07;;;;;;;15.73;6.90;;;;;;;;;;6093212;23;20562;-88
2022/02/02 23:54:12;;;;;;;15.93;7.00;;;;;;;;;;6109549;23;20578;-88
2022/02/02 23:57:33;;;;;;;16.90;7.57;;;;;;;;;;6136489;23;20498;-89
